Terminal Aerodrome Forecast
Issued by NWS Charleston, WV

Current Version | Previous Version | Text Only | Print | Product List | Glossary Off
Versions: 1 2 3 4 5 6 7 8 9 10 11 12 13 14 15 16 17 18 19 20 21 22 23 24 25 26 27

000
FTUS41 KRLX 200858 AAA
TAFBKW
TAF AMD
KBKW 200858Z 2009/2106 15008KT 6SM -RA SCT015 OVC035
      TEMPO 2010/2014 3SM -RA SCT008 OVC015
     FM201500 16008KT 6SM -SHRA SCT010 OVC020
     FM201700 23009KT P6SM BKN025
     FM201900 24009KT P6SM BKN030
     FM202300 22006KT P6SM SCT035=

USA.gov is the U.S. government's official web portal to all federal, state and local government web resources and services.